createdAt,value
2018-12-02T00:00:56.760Z,89.28
2018-12-02T00:03:25.861Z,89.63
2018-12-02T00:05:54.916Z,89.62
2018-12-02T00:08:23.959Z,89.27
2018-12-02T00:10:52.656Z,89.29
2018-12-02T00:13:21.751Z,88.90
2018-12-02T00:15:51.383Z,89.13
2018-12-02T00:18:20.407Z,89.05
2018-12-02T00:20:49.214Z,89.21
2018-12-02T00:23:18.222Z,88.65
2018-12-02T00:25:47.576Z,89.14
2018-12-02T00:28:16.565Z,89.25
2018-12-02T00:30:45.358Z,89.33
2018-12-02T00:33:14.754Z,89.81
2018-12-02T00:35:43.838Z,90.01
2018-12-02T00:38:12.798Z,90.17
2018-12-02T00:40:41.873Z,90.86
2018-12-02T00:43:10.721Z,90.28
2018-12-02T00:45:39.607Z,90.83
2018-12-02T00:48:09.319Z,90.60
2018-12-02T00:50:38.607Z,90.38
2018-12-02T00:53:09.190Z,90.17
2018-12-02T00:55:42.597Z,90.26
2018-12-02T00:58:11.758Z,89.95
2018-12-02T01:00:40.878Z,89.83
2018-12-02T01:03:10.623Z,89.48
2018-12-02T01:05:40.388Z,89.58
2018-12-02T01:08:09.743Z,89.76
2018-12-02T01:10:38.652Z,89.97
2018-12-02T01:13:09.277Z,90.33
2018-12-02T01:15:38.704Z,90.37
2018-12-02T01:18:08.257Z,90.29
2018-12-02T01:20:37.701Z,90.18
2018-12-02T01:23:07.169Z,90.30
2018-12-02T01:25:36.839Z,89.85
2018-12-02T01:28:05.865Z,90.08
2018-12-02T01:30:34.788Z,89.95
2018-12-02T01:33:03.545Z,90.42
2018-12-02T01:35:32.357Z,90.37
2018-12-02T01:38:01.462Z,89.37
2018-12-02T01:40:30.913Z,88.86
2018-12-02T01:42:59.602Z,89.63
2018-12-02T01:45:28.605Z,89.29
2018-12-02T01:47:58.017Z,89.65
2018-12-02T01:50:27.377Z,88.96
2018-12-02T01:52:57.168Z,88.63
2018-12-02T01:55:26.079Z,88.91
2018-12-02T01:57:55.009Z,89.16
2018-12-02T02:00:27.124Z,88.64
2018-12-02T02:02:56.775Z,89.22
2018-12-02T02:05:26.638Z,89.37
2018-12-02T02:07:55.422Z,89.63
2018-12-02T02:10:26.122Z,89.19
2018-12-02T02:12:54.954Z,88.49
2018-12-02T02:15:23.967Z,88.88
2018-12-02T02:17:53.035Z,88.72
2018-12-02T02:20:24.732Z,89.41
2018-12-02T02:22:53.583Z,89.13
2018-12-02T02:25:24.272Z,88.79
2018-12-02T02:27:56.159Z,89.63
2018-12-02T02:30:25.900Z,89.27
2018-12-02T02:32:55.047Z,89.13
2018-12-02T02:35:23.853Z,89.37
2018-12-02T02:37:54.712Z,89.05
2018-12-02T02:40:24.398Z,90.13
2018-12-02T02:42:53.287Z,89.83
2018-12-02T02:45:22.002Z,89.81
2018-12-02T02:47:50.985Z,90.09
2018-12-02T02:50:20.625Z,90.21
2018-12-02T02:52:50.689Z,90.54
2018-12-02T02:55:19.736Z,90.17
2018-12-02T02:57:48.470Z,90.06
2018-12-02T03:00:19.380Z,90.42
2018-12-02T03:02:48.152Z,90.15
2018-12-02T03:05:17.646Z,90.89
2018-12-02T03:07:46.459Z,91.12
2018-12-02T03:10:18.224Z,90.74
2018-12-02T03:12:50.137Z,90.75
2018-12-02T03:15:19.848Z,90.52
2018-12-02T03:17:49.249Z,91.18
2018-12-02T03:20:19.043Z,90.89
2018-12-02T03:22:50.873Z,91.12
2018-12-02T03:25:22.749Z,91.32
2018-12-02T03:27:52.137Z,91.80
2018-12-02T03:30:24.665Z,91.69
2018-12-02T03:32:53.588Z,91.52
2018-12-02T03:35:25.234Z,91.69
2018-12-02T03:37:54.824Z,91.71
2018-12-02T03:40:24.664Z,90.99
2018-12-02T03:42:53.756Z,91.09
2018-12-02T03:45:23.825Z,91.06
2018-12-02T03:47:53.195Z,90.99
2018-12-02T03:50:22.831Z,91.63
2018-12-02T03:52:51.822Z,91.57
2018-12-02T03:55:20.850Z,91.18
2018-12-02T03:57:49.799Z,91.59
2018-12-02T04:00:23.664Z,91.46
2018-12-02T04:02:53.407Z,91.98
2018-12-02T04:05:25.128Z,91.77
2018-12-02T04:07:54.079Z,91.61
2018-12-02T04:10:22.986Z,91.92
2018-12-02T04:12:52.527Z,91.71
2018-12-02T04:15:22.215Z,91.81
2018-12-02T04:17:51.074Z,91.59
2018-12-02T04:20:20.503Z,91.34
2018-12-02T04:22:50.031Z,90.75
2018-12-02T04:25:20.094Z,90.52
2018-12-02T04:27:49.288Z,90.28
2018-12-02T04:30:19.784Z,89.84
2018-12-02T04:32:50.262Z,90.08
2018-12-02T04:35:20.998Z,89.92
2018-12-02T04:37:49.752Z,90.43
2018-12-02T04:40:18.475Z,90.35
2018-12-02T04:42:47.426Z,90.52
2018-12-02T04:45:18.208Z,90.17
2018-12-02T04:47:47.319Z,89.94
2018-12-02T04:50:24.765Z,90.23
2018-12-02T04:52:53.934Z,90.43
2018-12-02T04:55:23.043Z,90.36
2018-12-02T04:57:52.546Z,89.85
2018-12-02T05:00:21.806Z,89.96
2018-12-02T05:02:52.207Z,90.02
2018-12-02T05:05:21.709Z,89.60
2018-12-02T05:07:50.572Z,90.07
2018-12-02T05:10:20.079Z,90.31
2018-12-02T05:12:49.106Z,89.84
2018-12-02T05:15:18.750Z,89.79
2018-12-02T05:17:48.220Z,90.11
2018-12-02T05:20:19.693Z,90.17
2018-12-02T05:22:48.549Z,90.42
2018-12-02T05:25:18.596Z,89.77
2018-12-02T05:27:46.921Z,89.66
2018-12-02T05:30:21.532Z,90.10
2018-12-02T05:32:52.181Z,90.21
2018-12-02T05:35:20.984Z,90.34
2018-12-02T05:37:49.927Z,90.17
2018-12-02T05:40:21.890Z,90.97
2018-12-02T05:42:51.101Z,90.62
2018-12-02T05:45:20.082Z,90.28
2018-12-02T05:47:49.348Z,90.38
2018-12-02T05:50:19.300Z,90.43
2018-12-02T05:52:51.254Z,90.50
2018-12-02T05:55:21.439Z,90.51
2018-12-02T05:57:50.248Z,90.47
2018-12-02T06:00:20.251Z,90.44
2018-12-02T06:02:49.219Z,89.93
2018-12-02T06:05:18.170Z,89.51
2018-12-02T06:07:46.930Z,90.07
2018-12-02T06:10:16.955Z,90.12
2018-12-02T06:12:45.738Z,89.86
2018-12-02T06:15:16.305Z,90.22
2018-12-02T06:17:45.073Z,90.07
2018-12-02T06:20:18.649Z,89.89
2018-12-02T06:22:48.158Z,90.46
2018-12-02T06:25:17.233Z,90.35
2018-12-02T06:27:46.081Z,90.84
2018-12-02T06:30:24.692Z,90.03
2018-12-02T06:32:59.578Z,90.41
2018-12-02T06:35:28.902Z,91.28
2018-12-02T06:37:58.590Z,90.81
2018-12-02T06:40:28.336Z,90.84
2018-12-02T06:42:57.288Z,90.30
2018-12-02T06:45:26.777Z,90.25
2018-12-02T06:47:55.976Z,90.18
2018-12-02T06:50:26.872Z,90.06
2018-12-02T06:52:56.714Z,90.40
2018-12-02T06:55:34.914Z,90.15
2018-12-02T06:58:18.348Z,89.69
2018-12-02T07:00:52.935Z,89.98
2018-12-02T07:03:29.309Z,90.23
2018-12-02T07:05:58.225Z,90.06
2018-12-02T07:08:27.526Z,89.61
2018-12-02T07:10:56.378Z,90.33
2018-12-02T07:13:25.395Z,90.43
2018-12-02T07:15:54.647Z,89.72
2018-12-02T07:18:26.185Z,90.56
2018-12-02T07:20:56.915Z,90.26
2018-12-02T07:23:28.694Z,89.54
2018-12-02T07:25:57.794Z,89.19
2018-12-02T07:28:26.732Z,90.34
2018-12-02T07:30:55.740Z,90.09
2018-12-02T07:33:24.888Z,90.38
2018-12-02T07:35:53.728Z,90.51
2018-12-02T07:38:33.864Z,90.28
2018-12-02T07:41:03.298Z,90.14
2018-12-02T07:43:32.315Z,90.54
2018-12-02T07:46:01.126Z,90.38
2018-12-02T07:48:30.027Z,90.75
2018-12-02T07:50:58.882Z,90.39
2018-12-02T07:53:28.008Z,90.65
2018-12-02T07:55:57.918Z,90.77
2018-12-02T07:58:26.983Z,90.13
2018-12-02T08:00:56.364Z,90.83
2018-12-02T08:03:26.292Z,90.51
2018-12-02T08:05:55.089Z,90.38
2018-12-02T08:08:24.049Z,90.70
2018-12-02T08:10:53.078Z,90.25
2018-12-02T08:13:21.857Z,90.20
2018-12-02T08:15:50.753Z,90.37
2018-12-02T08:18:19.706Z,90.30
2018-12-02T08:20:48.564Z,90.32
2018-12-02T08:23:17.391Z,90.00
2018-12-02T08:25:46.138Z,90.21
2018-12-02T08:28:15.137Z,90.41
2018-12-02T08:30:44.214Z,90.88
2018-12-02T08:33:13.248Z,90.48
2018-12-02T08:35:42.104Z,90.67
2018-12-02T08:38:11.881Z,90.30
2018-12-02T08:40:40.659Z,90.91
2018-12-02T08:43:09.712Z,90.13
2018-12-02T08:45:38.797Z,90.01
2018-12-02T08:48:07.498Z,90.25
2018-12-02T08:50:36.656Z,90.00
2018-12-02T08:53:05.894Z,90.50
2018-12-02T08:55:34.748Z,89.72
2018-12-02T08:58:03.685Z,90.12
2018-12-02T09:00:32.981Z,90.22
2018-12-02T09:03:03.993Z,89.13
2018-12-02T09:05:32.962Z,89.52
2018-12-02T09:08:02.378Z,89.48
2018-12-02T09:10:32.428Z,88.97
2018-12-02T09:13:04.814Z,89.79
2018-12-02T09:15:33.688Z,89.87
2018-12-02T09:18:02.498Z,90.06
2018-12-02T09:20:36.331Z,89.91
2018-12-02T09:23:05.891Z,90.41
2018-12-02T09:25:34.801Z,90.31
2018-12-02T09:28:04.200Z,90.82
2018-12-02T09:30:34.363Z,90.69
2018-12-02T09:33:03.451Z,90.41
2018-12-02T09:35:32.384Z,90.43
2018-12-02T09:38:01.408Z,90.24
2018-12-02T09:40:30.378Z,90.11
2018-12-02T09:42:59.348Z,90.40
2018-12-02T09:45:29.139Z,89.96
2018-12-02T09:48:01.980Z,89.48
2018-12-02T09:50:30.966Z,90.38
2018-12-02T09:53:00.338Z,90.42
2018-12-02T09:55:32.194Z,90.07
2018-12-02T09:58:01.121Z,89.69
2018-12-02T10:00:34.116Z,89.64
2018-12-02T10:02:59.239Z,89.55
2018-12-02T10:05:28.060Z,89.03
2018-12-02T10:07:56.716Z,89.29
2018-12-02T10:10:25.508Z,89.68
2018-12-02T10:12:59.963Z,89.43
2018-12-02T10:15:28.956Z,89.69
2018-12-02T10:17:57.734Z,90.05
2018-12-02T10:20:26.947Z,89.94
2018-12-02T10:22:56.204Z,90.25
2018-12-02T10:25:25.241Z,89.99
2018-12-02T10:27:54.721Z,90.20
2018-12-02T10:30:24.344Z,89.99
2018-12-02T10:32:54.038Z,90.39
2018-12-02T10:35:22.755Z,89.68
2018-12-02T10:37:52.047Z,89.29
2018-12-02T10:40:22.915Z,89.19
2018-12-02T10:42:52.646Z,89.24
2018-12-02T10:45:22.209Z,88.71
2018-12-02T10:47:54.890Z,88.97
2018-12-02T10:50:33.617Z,88.88
2018-12-02T10:53:06.604Z,88.77
2018-12-02T10:55:41.008Z,89.17
2018-12-02T10:58:11.510Z,89.49
2018-12-02T11:00:45.538Z,89.55
2018-12-02T11:03:14.458Z,88.81
2018-12-02T11:05:43.431Z,88.95
2018-12-02T11:08:12.175Z,88.88
2018-12-02T11:10:41.009Z,89.47
2018-12-02T11:13:09.841Z,89.27
2018-12-02T11:15:39.137Z,89.58
2018-12-02T11:18:09.406Z,89.37
2018-12-02T11:20:38.221Z,89.12
2018-12-02T11:23:07.913Z,89.47
2018-12-02T11:25:37.470Z,89.03
2018-12-02T11:28:07.190Z,89.61
2018-12-02T11:30:36.145Z,89.07
2018-12-02T11:33:05.316Z,89.28
2018-12-02T11:35:34.227Z,88.68
2018-12-02T11:38:03.556Z,88.88
2018-12-02T11:40:32.319Z,88.80
2018-12-02T11:43:01.138Z,88.46
2018-12-02T11:45:29.895Z,88.77
2018-12-02T11:47:58.769Z,88.82
2018-12-02T11:50:27.702Z,88.75
2018-12-02T11:52:56.631Z,88.74
2018-12-02T11:55:25.539Z,88.79
2018-12-02T11:57:54.617Z,89.04
2018-12-02T12:00:24.488Z,88.72
2018-12-02T12:02:54.053Z,88.71
2018-12-02T12:05:22.754Z,88.34
2018-12-02T12:07:51.785Z,88.73
2018-12-02T12:10:26.619Z,88.63
2018-12-02T12:12:59.295Z,88.73
2018-12-02T12:15:28.940Z,89.20
2018-12-02T12:17:58.220Z,89.44
2018-12-02T12:20:30.801Z,89.85
2018-12-02T12:22:59.782Z,90.18
2018-12-02T12:25:29.076Z,90.39
2018-12-02T12:27:58.663Z,89.81
2018-12-02T12:30:30.566Z,89.89
2018-12-02T12:32:59.674Z,89.89
2018-12-02T12:35:28.559Z,89.93
2018-12-02T12:37:57.543Z,89.71
2018-12-02T12:40:28.968Z,90.16
2018-12-02T12:43:34.163Z,89.66
2018-12-02T12:46:03.546Z,89.75
2018-12-02T12:48:32.388Z,89.83
2018-12-02T12:51:01.255Z,90.00
2018-12-02T12:53:29.991Z,90.28
2018-12-02T12:55:58.838Z,89.45
2018-12-02T12:58:27.520Z,90.29
2018-12-02T13:00:56.285Z,91.09
2018-12-02T13:03:25.513Z,90.30
2018-12-02T13:05:54.156Z,90.67
2018-12-02T13:08:23.062Z,90.48
2018-12-02T13:10:51.847Z,90.78
2018-12-02T13:13:21.924Z,90.12
2018-12-02T13:15:50.263Z,90.28
2018-12-02T13:18:19.335Z,90.44
2018-12-02T13:20:54.343Z,90.31
2018-12-02T13:23:23.498Z,90.16
2018-12-02T13:25:52.697Z,90.18
2018-12-02T13:28:21.559Z,89.89
2018-12-02T13:30:50.511Z,90.09
2018-12-02T13:33:19.354Z,89.93
2018-12-02T13:35:48.417Z,89.52
2018-12-02T13:38:17.361Z,89.25
2018-12-02T13:40:46.179Z,89.21
2018-12-02T13:43:18.247Z,90.07
2018-12-02T13:45:47.624Z,89.47
2018-12-02T13:48:16.636Z,89.78
2018-12-02T13:50:45.875Z,90.37
2018-12-02T13:53:15.088Z,90.31
2018-12-02T13:55:44.330Z,89.56
2018-12-02T13:58:13.116Z,89.64
2018-12-02T14:00:43.082Z,89.61
2018-12-02T14:03:13.320Z,89.28
2018-12-02T14:05:45.077Z,89.33
2018-12-02T14:08:14.038Z,89.44
2018-12-02T14:10:43.380Z,88.56
2018-12-02T14:13:24.371Z,88.90
2018-12-02T14:16:02.008Z,88.83
2018-12-02T14:18:36.130Z,89.27
2018-12-02T14:21:05.210Z,88.68
2018-12-02T14:23:33.972Z,89.25
2018-12-02T14:26:05.923Z,88.55
2018-12-02T14:28:42.301Z,88.79
2018-12-02T14:31:11.125Z,88.81
2018-12-02T14:33:39.855Z,89.22
2018-12-02T14:36:08.756Z,88.44
2018-12-02T14:38:37.531Z,88.89
2018-12-02T14:41:07.096Z,88.72
2018-12-02T14:43:36.142Z,88.93
2018-12-02T14:46:05.010Z,89.20
2018-12-02T14:48:33.967Z,89.28
2018-12-02T14:51:02.845Z,89.36
2018-12-02T14:53:31.832Z,89.31
2018-12-02T14:56:01.095Z,89.04
2018-12-02T14:58:30.067Z,89.53
2018-12-02T15:00:58.818Z,89.70
2018-12-02T15:03:27.704Z,89.18
2018-12-02T15:05:56.842Z,89.17
2018-12-02T15:08:25.572Z,90.16
2018-12-02T15:10:54.405Z,90.06
2018-12-02T15:13:23.239Z,89.87
2018-12-02T15:15:51.933Z,89.70
2018-12-02T15:18:21.015Z,89.78
2018-12-02T15:20:49.761Z,89.72
2018-12-02T15:23:19.134Z,89.17
2018-12-02T15:25:48.085Z,90.44
2018-12-02T15:28:16.905Z,89.99
2018-12-02T15:31:49.105Z,89.54
2018-12-02T15:34:18.106Z,89.21
2018-12-02T15:36:46.945Z,89.36
2018-12-02T15:39:16.029Z,89.12
2018-12-02T15:41:45.163Z,88.97
2018-12-02T15:44:13.891Z,89.48
2018-12-02T15:46:42.789Z,89.48
2018-12-02T15:49:11.544Z,89.28
2018-12-02T15:51:40.226Z,89.15
2018-12-02T15:54:09.120Z,89.67
2018-12-02T15:56:38.086Z,89.94
2018-12-02T15:59:08.643Z,89.90
2018-12-02T16:01:38.320Z,89.53
2018-12-02T16:04:07.152Z,90.23
2018-12-02T16:06:36.247Z,90.14
2018-12-02T16:09:07.722Z,89.93
2018-12-02T16:11:36.686Z,90.06
2018-12-02T16:14:06.103Z,89.83
2018-12-02T16:16:34.828Z,89.91
2018-12-02T16:19:03.856Z,89.88
2018-12-02T16:21:33.202Z,90.27
2018-12-02T16:24:01.931Z,89.85
2018-12-02T16:26:30.923Z,90.07
2018-12-02T16:28:59.599Z,89.51
2018-12-02T16:31:28.779Z,89.97
2018-12-02T16:33:57.639Z,89.58
2018-12-02T16:36:26.496Z,90.18
2018-12-02T16:38:55.862Z,89.12
2018-12-02T16:41:25.254Z,89.61
2018-12-02T16:43:54.226Z,89.83
2018-12-02T16:46:22.907Z,89.51
2018-12-02T16:48:52.248Z,89.77
2018-12-02T16:51:21.383Z,89.55
2018-12-02T16:53:50.133Z,89.63
2018-12-02T16:56:19.157Z,89.62
2018-12-02T16:58:56.625Z,89.73
2018-12-02T17:01:26.512Z,89.44
2018-12-02T17:03:59.021Z,89.83
2018-12-02T17:06:28.325Z,89.85
2018-12-02T17:08:58.741Z,89.52
2018-12-02T17:11:27.843Z,89.81
2018-12-02T17:13:56.675Z,89.99
2018-12-02T17:16:25.497Z,89.91
2018-12-02T17:18:54.480Z,89.78
2018-12-02T17:21:23.521Z,90.08
2018-12-02T17:23:52.466Z,89.75
2018-12-02T17:26:21.824Z,89.80
2018-12-02T17:28:51.117Z,90.62
2018-12-02T17:31:23.162Z,90.54
2018-12-02T17:33:52.481Z,90.62
2018-12-02T17:36:27.316Z,90.74
2018-12-02T17:39:04.944Z,91.07
2018-12-02T17:41:36.713Z,90.96
2018-12-02T17:44:07.635Z,91.06
2018-12-02T17:46:42.339Z,90.73
2018-12-02T17:49:14.732Z,91.26
2018-12-02T17:51:43.989Z,90.45
2018-12-02T17:54:12.892Z,90.79
2018-12-02T17:56:42.190Z,90.49
2018-12-02T17:59:11.257Z,90.24
2018-12-02T18:01:40.154Z,90.69
2018-12-02T18:04:09.215Z,90.73
2018-12-02T18:06:38.373Z,90.78
2018-12-02T18:09:10.663Z,90.46
2018-12-02T18:11:39.569Z,89.93
2018-12-02T18:14:08.614Z,90.60
2018-12-02T18:16:37.620Z,90.30
2018-12-02T18:19:06.949Z,90.59
2018-12-02T18:21:36.373Z,90.81
2018-12-02T18:24:06.010Z,91.00
2018-12-02T18:26:34.802Z,90.60
2018-12-02T18:29:04.314Z,90.80
2018-12-02T18:31:33.625Z,91.08
2018-12-02T18:34:02.742Z,90.64
2018-12-02T18:36:33.940Z,90.38
2018-12-02T18:39:04.334Z,90.41
2018-12-02T18:41:37.361Z,91.08
2018-12-02T18:44:08.932Z,90.84
2018-12-02T18:46:38.195Z,90.58
2018-12-02T18:49:07.464Z,90.45
2018-12-02T18:51:36.690Z,90.72
2018-12-02T18:54:06.595Z,90.71
2018-12-02T18:56:35.706Z,91.11
2018-12-02T18:59:04.809Z,90.86
2018-12-02T19:01:35.114Z,90.70
2018-12-02T19:04:04.766Z,91.28
2018-12-02T19:06:33.969Z,91.40
2018-12-02T19:09:03.401Z,91.36
2018-12-02T19:11:33.044Z,91.47
2018-12-02T19:14:02.399Z,91.64
2018-12-02T19:16:32.272Z,90.96
2018-12-02T19:19:01.418Z,90.81
2018-12-02T19:21:31.632Z,90.95
2018-12-02T19:24:01.563Z,90.99
2018-12-02T19:26:31.109Z,90.45
2018-12-02T19:29:00.614Z,90.73
2018-12-02T19:31:30.159Z,91.26
2018-12-02T19:33:59.583Z,91.10
2018-12-02T19:36:33.139Z,91.21
2018-12-02T19:39:02.769Z,91.25
2018-12-02T19:41:31.986Z,90.67
2018-12-02T19:44:01.312Z,90.85
2018-12-02T19:46:30.868Z,91.05
2018-12-02T19:49:00.414Z,90.79
2018-12-02T19:51:29.666Z,90.59
2018-12-02T19:53:59.401Z,90.82
2018-12-02T19:56:28.652Z,90.72
2018-12-02T19:58:57.869Z,91.17
2018-12-02T20:01:27.438Z,90.57
2018-12-02T20:03:57.092Z,90.50
2018-12-02T20:06:26.703Z,90.29
2018-12-02T20:08:56.309Z,91.07
2018-12-02T20:11:25.750Z,91.05
2018-12-02T20:13:55.414Z,90.36
2018-12-02T20:16:24.908Z,90.87
2018-12-02T20:18:54.169Z,90.94
2018-12-02T20:21:24.525Z,91.53
2018-12-02T20:23:59.087Z,91.55
2018-12-02T20:26:28.727Z,91.72
2018-12-02T20:28:59.293Z,91.19
2018-12-02T20:31:30.031Z,91.56
2018-12-02T20:33:59.566Z,91.28
2018-12-02T20:36:29.748Z,91.56
2018-12-02T20:38:59.248Z,91.49
2018-12-02T20:41:28.849Z,91.67
2018-12-02T20:43:58.417Z,90.95
2018-12-02T20:46:27.890Z,90.66
2018-12-02T20:48:57.360Z,90.93
2018-12-02T20:51:26.591Z,90.67
2018-12-02T20:53:55.866Z,91.02
2018-12-02T20:56:25.395Z,90.77
2018-12-02T20:58:54.467Z,91.13
2018-12-02T21:01:23.891Z,91.02
2018-12-02T21:03:53.429Z,91.43
2018-12-02T21:06:23.053Z,91.23
2018-12-02T21:08:52.420Z,91.42
2018-12-02T21:11:21.706Z,91.29
2018-12-02T21:13:51.129Z,91.45
2018-12-02T21:16:20.300Z,91.85
2018-12-02T21:18:50.565Z,91.47
2018-12-02T21:21:19.563Z,91.90
2018-12-02T21:23:48.787Z,91.45
2018-12-02T21:26:18.142Z,92.06
2018-12-02T21:28:46.969Z,91.79
2018-12-02T21:31:16.278Z,91.49
2018-12-02T21:33:45.808Z,91.29
2018-12-02T21:36:14.871Z,91.05
2018-12-02T21:38:44.294Z,91.38
2018-12-02T21:41:13.285Z,90.60
2018-12-02T21:43:42.420Z,91.00
2018-12-02T21:46:11.066Z,90.54
2018-12-02T21:48:40.156Z,90.63
2018-12-02T21:51:09.217Z,90.38
2018-12-02T21:53:39.005Z,90.73
2018-12-02T21:56:08.188Z,90.36
2018-12-02T21:58:37.276Z,91.00
2018-12-02T22:01:11.480Z,90.65
2018-12-02T22:03:40.360Z,90.49
2018-12-02T22:06:09.403Z,90.85
2018-12-02T22:08:38.649Z,90.73
2018-12-02T22:11:07.895Z,90.17
2018-12-02T22:13:37.152Z,90.58
2018-12-02T22:16:06.191Z,89.64
2018-12-02T22:18:35.196Z,90.22
2018-12-02T22:21:03.928Z,90.63
2018-12-02T22:23:32.856Z,90.35
2018-12-02T22:26:01.968Z,89.85
2018-12-02T22:28:30.935Z,90.36
2018-12-02T22:30:59.914Z,90.13
2018-12-02T22:33:28.646Z,90.51
2018-12-02T22:35:57.439Z,90.33
2018-12-02T22:38:26.516Z,90.68
2018-12-02T22:40:55.224Z,89.99
2018-12-02T22:43:23.971Z,89.69
2018-12-02T22:45:53.287Z,90.12
2018-12-02T22:48:21.989Z,89.39
2018-12-02T22:50:50.786Z,89.83
2018-12-02T22:53:19.756Z,89.35
2018-12-02T22:55:48.648Z,89.00
2018-12-02T22:58:17.540Z,89.34
2018-12-02T23:00:51.861Z,89.19
2018-12-02T23:03:21.013Z,89.64
2018-12-02T23:05:49.873Z,89.25
2018-12-02T23:08:18.624Z,89.15
2018-12-02T23:10:47.725Z,88.99
2018-12-02T23:13:16.467Z,89.01
2018-12-02T23:15:46.308Z,89.50
2018-12-02T23:18:15.165Z,89.32
2018-12-02T23:20:44.236Z,88.90
2018-12-02T23:23:12.922Z,88.73
2018-12-02T23:26:17.984Z,89.18
2018-12-02T23:29:27.163Z,89.22
2018-12-02T23:32:36.484Z,89.07
2018-12-02T23:35:07.018Z,89.19
2018-12-02T23:37:37.095Z,89.24
2018-12-02T23:40:27.629Z,89.56
2018-12-02T23:43:36.857Z,89.66
2018-12-02T23:46:06.966Z,89.45
2018-12-02T23:48:36.983Z,89.13
2018-12-02T23:51:06.972Z,89.20
2018-12-02T23:53:37.453Z,89.29
2018-12-02T23:59:33.492Z,89.55
